ADDS METAR Data INFO
IDs: Format: Raw Decoded Include TAF

Data at: 0112 UTC 24 Jun 2018

KMOB 240056Z 20007KT 10SM FEW150 SCT250 29/25 A2993 RMK AO2 SLP132 T02890250
KMOB 232356Z 21011KT 10SM FEW060 SCT250 30/24 A2992 RMK AO2 SLP128 T03000239 10339 20300 55005
KMOB 232256Z 22010KT 10SM FEW060 SCT250 32/24 A2991 RMK AO2 SLP125 T03170239
KMOB 232156Z 20013KT 10SM FEW050 SCT260 33/24 A2992 RMK AO2 SLP128 T03330239
KMOB 232056Z 24009G14KT 10SM BKN046 BKN055 33/23 A2994 RMK AO2 SLP133 T03280228 58014
KMOB 231956Z 21010KT 10SM FEW044 33/23 A2995 RMK AO2 SLP139 T03330233
KMOB 231856Z VRB05KT 10SM SCT048 33/23 A2997 RMK AO2 SLP145 T03330228
KMOB 231756Z 20012KT 10SM FEW037 SCT250 33/23 A2998 RMK AO2 SLP148 T03330228 10333 20278 58004
KMOB 231656Z COR 24006KT 10SM FEW047 SCT060 SCT250 32/24 A2999 RMK AO2 SLP151 T03170239
KMOB 231556Z 26008KT 220V280 10SM SCT037 31/24 A3000 RMK AO2 SLP155 T03110239
KMOB 231456Z 24009KT 10SM FEW027 SCT034 BKN046 30/24 A2999 RMK AO2 SLP152 T03000239 51013
KMOB 231419Z VRB06KT 10SM FEW022 BKN037 BKN048 29/24 A2999 RMK AO2 T02890244
KMOB 231356Z 27007KT 10SM SCT020 BKN027 BKN036 29/24 A2999 RMK AO2 SLP151 T02890244
KMOB 231256Z 23009G16KT 10SM FEW016 28/24 A2997 RMK AO2 SLP145 T02780239
KMOB 231156Z 22006KT 10SM FEW019 FEW200 26/24 A2995 RMK AO2 SLP139 T02610239 10272 20244 51010
KMOB 231056Z 21004KT 10SM FEW021 FEW250 24/23 A2995 RMK AO2 SLP139 T02440233
KMOB 230956Z AUTO 23004KT 10SM FEW024 FEW031 26/23 A2994 RMK AO2 SLP133 T02560233
KMOB 230939Z AUTO 23005KT 10SM SCT023 SCT031 26/23 A2994 RMK AO2 T02560233
KMOB 230927Z AUTO 24004KT 10SM BKN023 26/23 A2993 RMK AO2 T02610233
KMOB 230856Z AUTO 22005KT 10SM FEW024 26/24 A2992 RMK AO2 SLP128 T02560239 53007
KMOB 230827Z AUTO 22004KT 10SM SCT021 26/24 A2991 RMK AO2 T02560239
KMOB 230808Z AUTO 22005KT 10SM BKN021 26/24 A2991 RMK AO2 T02610239
KMOB 230756Z AUTO 23005KT 10SM SCT023 26/24 A2991 RMK AO2 SLP123 T02610239
KMOB 230656Z AUTO 23007KT 10SM FEW021 27/24 A2991 RMK AO2 SLP123 T02670239
KMOB 230556Z AUTO 23008KT 10SM CLR 27/24 A2990 RMK AO2 SLP121 T02720239 10300 20272 403330233 53001
KMOB 230456Z AUTO 20010KT 10SM CLR 27/24 A2989 RMK AO2 SLP117 T02720244
KMOB 230356Z 20008KT 10SM CLR 27/24 A2989 RMK AO2 SLP116 T02720244
KMOB 230256Z 19008KT 10SM FEW090 SCT250 27/24 A2990 RMK AO2 SLP120 T02720244 50009
KMOB 230156Z 22004KT 10SM FEW080 SCT250 28/24 A2991 RMK AO2 SLP125 T02780244
KMOB 230056Z 22006KT 10SM FEW060 SCT250 29/24 A2989 RMK AO2 SLP118 T02890244
KMOB 222356Z 22011KT 10SM FEW050 SCT250 30/24 A2987 RMK AO2 SLP111 T03000239 10333 20300 56004
KMOB 222256Z 21013G22KT 10SM FEW032 31/24 A2987 RMK AO2 SLP111 T03110239
KMOB 222156Z 21013KT 10SM SCT035 SCT250 32/24 A2988 RMK AO2 SLP113 T03220239
KMOB 222056Z 22014G19KT 10SM FEW045 SCT250 32/24 A2988 RMK AO2 SLP115 T03220239 56020
KMOB 221956Z 23011G17KT 10SM SCT050 SCT250 33/23 A2990 RMK AO2 SLP122 T03280228
KMOB 221856Z 24011G19KT 10SM BKN045 BKN250 32/23 A2992 RMK AO2 SLP129 T03220228
KMOB 221756Z 24012G17KT 10SM SCT040 BKN250 33/22 A2994 RMK AO2 SLP136 T03280222 10328 20250 58004
KMOB 221656Z 22008KT 10SM BKN035 BKN250 32/23 A2995 RMK AO2 SLP137 T03170233
KMOB 221556Z 24008KT 10SM BKN030 BKN250 30/23 A2996 RMK AO2 SLP140 T03000228
KMOB 221456Z 23008KT 10SM BKN019 BKN250 29/24 A2995 RMK AO2 SLP140 T02940239 53003
KMOB 221356Z 26005KT 10SM BKN017 BKN250 28/24 A2995 RMK AO2 SLP138 T02830244
KMOB 221349Z 27008KT 10SM BKN015 BKN250 28/24 A2995 RMK AO2 T02830244